Search for airport 
image banner adimage banner adimage banner ad
image banner ad

9CA6 - North Valley

Located in Bishop, United States

ICAO - 9CA6, IATA -

Data provided by Airmate  

General information

Coordinates: N37°52'9" W118°5'42"
Elevation is 4960 feet MSL.
Magnetic variation is 15° East
View others Airports in California

Operational data

Special qualification required
Current time UTC:
Current local time:
Weather at : KBIH - Bishop ( 60 km )
METAR: KBIH 141156Z AUTO 34004KT 10SM CLR 11/01 A3001 RMK AO2 SLP111 T01060011 10278 20106 53010
TAF: KBIH 141120Z 1412/1512 VRB05KT P6SM FEW250 FM141700 16018G28KT P6SM FEW250 FM142300 24018G28KT P6SM FEW250 FM150400 33006KT P6SM FEW250
View NOTAMs / SUP AIP / TFR affecting this airport [VIEW]
Communications frequencies: [VIEW]

Runways:

RWY identifierQFULength (ft)Width (ft)SurfaceLDA (ft)
165300100EARTH
345300100EARTH

Airport contact information

Address: Bishop United States

Satellite view of 9CA6